Time;durP1;ratioP1;P1;durP2;ratioP2;P2;SDS_P1;SDS_P2;PMS_P1;PMS_P2;Temp;Humidity;BMP_temperature;BMP_pressure;BME280_temperature;BME280_humidity;BME280_pressure;Samples;Min_cycle;Max_cycle;Signal;HPM_P1;HPM_P2
2022/05/04 00:00:23;;;;;;;2.60;2.40;;;14.10;99.90;;;;;;5020299;28;20265;-70
2022/05/04 00:02:50;;;;;;;2.63;2.42;;;14.10;99.90;;;;;;5020028;28;20625;-71
2022/05/04 00:05:17;;;;;;;2.53;2.33;;;14.10;99.90;;;;;;5019414;28;20269;-69
2022/05/04 00:07:44;;;;;;;2.78;2.58;;;14.00;99.90;;;;;;5022435;28;20215;-70
2022/05/04 00:10:12;;;;;;;3.03;2.83;;;14.00;99.90;;;;;;5024163;28;20231;-70
2022/05/04 00:12:41;;;;;;;2.33;2.22;;;14.00;99.90;;;;;;5026451;28;20230;-70
2022/05/04 00:15:10;;;;;;;2.25;2.15;;;14.00;99.90;;;;;;5025534;28;20302;-70
2022/05/04 00:17:37;;;;;;;2.60;2.40;;;13.90;99.90;;;;;;5026308;28;20304;-70
2022/05/04 00:20:05;;;;;;;2.45;2.25;;;13.90;99.90;;;;;;5025649;28;20558;-70
2022/05/04 00:22:32;;;;;;;2.95;2.75;;;13.90;99.90;;;;;;5020912;28;20192;-70
2022/05/04 00:24:59;;;;;;;2.30;2.20;;;13.80;99.90;;;;;;5024859;28;20709;-70
2022/05/04 00:27:26;;;;;;;2.67;2.47;;;13.80;99.90;;;;;;5024341;28;20223;-70
2022/05/04 00:29:54;;;;;;;2.58;2.38;;;13.80;99.90;;;;;;5024389;28;20248;-70
2022/05/04 00:32:21;;;;;;;2.60;2.40;;;13.70;99.90;;;;;;5027373;28;20207;-70
2022/05/04 00:34:48;;;;;;;2.80;2.60;;;13.70;99.90;;;;;;5026006;28;20215;-70
2022/05/04 00:37:15;;;;;;;2.80;2.60;;;13.60;99.90;;;;;;5024969;28;20752;-70
2022/05/04 00:39:42;;;;;;;3.20;3.00;;;13.60;99.90;;;;;;5024596;28;20204;-70
2022/05/04 00:42:11;;;;;;;2.90;2.70;;;13.50;99.90;;;;;;5024720;28;20607;-70
2022/05/04 00:44:38;;;;;;;3.15;2.85;;;13.40;99.90;;;;;;5023715;28;21615;-70
2022/05/04 00:47:08;;;;;;;3.15;2.95;;;13.30;99.90;;;;;;5024149;28;20224;-70
2022/05/04 00:49:35;;;;;;;3.40;3.10;;;13.30;99.90;;;;;;5024966;28;20257;-70
2022/05/04 00:52:03;;;;;;;2.72;2.55;;;13.20;99.90;;;;;;5025262;28;20564;-70
2022/05/04 00:54:31;;;;;;;3.15;2.95;;;13.20;99.90;;;;;;5021486;28;20219;-69
2022/05/04 00:56:59;;;;;;;2.90;2.70;;;13.10;99.90;;;;;;5024695;28;20231;-69
2022/05/04 00:59:26;;;;;;;3.42;2.53;;;13.10;99.90;;;;;;5022980;28;20261;-70
2022/05/04 01:01:53;;;;;;;2.85;2.65;;;13.10;99.90;;;;;;5024958;28;20215;-69
2022/05/04 01:04:22;;;;;;;4.03;2.38;;;13.10;99.90;;;;;;5026665;28;20265;-70
2022/05/04 01:06:49;;;;;;;2.80;2.45;;;13.10;99.90;;;;;;5019459;28;20278;-70
2022/05/04 01:09:16;;;;;;;2.88;2.67;;;13.10;99.90;;;;;;5025201;28;20257;-70
2022/05/04 01:11:44;;;;;;;2.70;2.50;;;13.10;99.90;;;;;;5023848;28;20235;-70
2022/05/04 01:14:12;;;;;;;2.50;2.30;;;13.10;99.90;;;;;;5022277;28;20219;-69
2022/05/04 01:16:45;;;;;;;2.30;2.20;;;13.20;99.90;;;;;;5034111;28;20263;-69
2022/05/04 01:19:13;;;;;;;2.72;2.53;;;13.20;99.90;;;;;;5030347;28;20586;-70
2022/05/04 01:21:42;;;;;;;2.92;2.72;;;13.20;99.90;;;;;;5025284;28;20872;-70
2022/05/04 01:24:11;;;;;;;3.42;2.80;;;13.10;99.90;;;;;;5027192;28;20277;-70
2022/05/04 01:26:38;;;;;;;2.80;2.60;;;13.10;99.90;;;;;;5022448;28;20293;-70
2022/05/04 01:29:05;;;;;;;2.45;2.25;;;13.10;99.90;;;;;;5027097;28;20574;-70
2022/05/04 01:31:33;;;;;;;2.70;2.50;;;13.10;99.90;;;;;;5023478;28;20224;-70
2022/05/04 01:34:00;;;;;;;2.70;2.50;;;13.00;99.90;;;;;;5023392;28;20315;-70
2022/05/04 01:36:28;;;;;;;2.38;2.17;;;13.00;99.90;;;;;;5024901;28;20369;-70
2022/05/04 01:38:55;;;;;;;2.78;2.58;;;13.00;99.90;;;;;;5020614;28;20203;-70
2022/05/04 01:44:08;;;;;;;2.78;2.58;;;13.00;99.90;;;;;;5024670;28;20807;-70
2022/05/04 01:46:35;;;;;;;2.55;2.35;;;13.00;99.90;;;;;;5023921;28;20220;-70
2022/05/04 01:49:02;;;;;;;2.20;2.10;;;13.10;99.90;;;;;;5023796;28;20223;-70
2022/05/04 01:51:29;;;;;;;2.20;2.10;;;13.10;99.90;;;;;;5021740;28;20305;-70
2022/05/04 01:53:56;;;;;;;2.35;2.25;;;13.10;99.90;;;;;;5022515;28;20262;-70
2022/05/04 01:56:25;;;;;;;2.25;2.15;;;13.10;99.90;;;;;;5021846;28;20759;-69
2022/05/04 01:58:52;;;;;;;2.97;2.67;;;13.00;99.90;;;;;;5022617;28;20204;-70
2022/05/04 02:01:20;;;;;;;2.60;2.40;;;13.00;99.90;;;;;;5025049;28;20278;-71
2022/05/04 02:03:47;;;;;;;2.63;2.42;;;12.90;99.90;;;;;;5023083;28;20192;-70
2022/05/04 02:06:15;;;;;;;2.58;2.40;;;13.00;99.90;;;;;;5023978;28;20699;-70
2022/05/04 02:08:42;;;;;;;2.50;2.33;;;12.90;99.90;;;;;;5022514;28;20210;-70
2022/05/04 02:11:09;;;;;;;2.38;2.17;;;12.90;99.90;;;;;;5021117;28;20246;-70
2022/05/04 02:13:38;;;;;;;2.50;2.30;;;12.90;99.90;;;;;;5021304;28;20212;-70
2022/05/04 02:16:06;;;;;;;2.67;2.22;;;12.90;99.90;;;;;;5018941;28;20721;-70
2022/05/04 02:18:33;;;;;;;2.70;2.20;;;12.90;99.90;;;;;;5023337;28;20240;-70
2022/05/04 02:21:00;;;;;;;2.42;2.28;;;12.90;99.90;;;;;;5023152;28;20307;-70
2022/05/04 02:23:28;;;;;;;2.50;2.30;;;12.80;99.90;;;;;;5024656;28;20271;-70
2022/05/04 02:25:55;;;;;;;2.55;2.35;;;12.80;99.90;;;;;;5020584;28;20772;-70
2022/05/04 02:28:22;;;;;;;2.78;2.58;;;12.80;99.90;;;;;;5023066;28;20262;-70
2022/05/04 02:30:50;;;;;;;2.70;2.50;;;12.70;99.90;;;;;;5023247;28;20215;-70
2022/05/04 02:33:17;;;;;;;2.33;2.20;;;12.70;99.90;;;;;;5019678;28;20782;-70
2022/05/04 02:38:29;;;;;;;2.67;2.47;;;12.70;99.90;;;;;;5023246;28;20284;-70
2022/05/04 02:40:56;;;;;;;3.13;2.88;;;12.70;99.90;;;;;;5021956;28;20281;-70
2022/05/04 02:43:26;;;;;;;2.30;2.10;;;12.60;99.90;;;;;;5021906;28;20198;-70
2022/05/04 02:45:54;;;;;;;2.40;2.20;;;12.60;99.90;;;;;;5039061;28;20231;-70
2022/05/04 02:48:22;;;;;;;2.92;2.60;;;12.60;99.90;;;;;;5021621;28;20234;-70
2022/05/04 02:50:49;;;;;;;2.38;2.28;;;12.50;99.90;;;;;;5023127;28;20239;-70
2022/05/04 02:53:16;;;;;;;2.38;2.28;;;12.50;99.90;;;;;;5022182;28;20223;-70
2022/05/04 02:55:43;;;;;;;2.58;2.38;;;12.50;99.90;;;;;;5021230;28;20228;-70
2022/05/04 02:58:10;;;;;;;2.47;2.28;;;12.50;99.90;;;;;;5022839;28;20219;-69
2022/05/04 03:00:37;;;;;;;2.15;2.05;;;12.50;99.90;;;;;;5023204;28;20219;-69
2022/05/04 03:03:05;;;;;;;2.70;2.50;;;12.40;99.90;;;;;;5021823;28;20192;-70
2022/05/04 03:05:32;;;;;;;2.40;2.30;;;12.40;99.90;;;;;;5018692;28;20249;-69
2022/05/04 03:07:59;;;;;;;2.55;2.35;;;12.40;99.90;;;;;;5024816;28;20216;-69
2022/05/04 03:10:26;;;;;;;2.65;2.45;;;12.40;99.90;;;;;;5021277;28;20223;-69
2022/05/04 03:12:53;;;;;;;2.50;2.30;;;12.40;99.90;;;;;;5021620;28;20203;-70
2022/05/04 03:15:20;;;;;;;2.80;2.60;;;12.40;99.90;;;;;;5022864;28;20263;-70
2022/05/04 03:17:47;;;;;;;2.78;2.58;;;12.40;99.90;;;;;;5019324;28;20215;-70
2022/05/04 03:20:16;;;;;;;3.38;2.10;;;12.30;99.90;;;;;;5020509;28;20705;-70
2022/05/04 03:22:43;;;;;;;2.80;2.60;;;12.30;99.90;;;;;;5019862;28;20211;-70
2022/05/04 03:25:10;;;;;;;2.30;2.20;;;12.20;99.90;;;;;;5022005;28;20674;-71
2022/05/04 03:27:37;;;;;;;2.30;2.20;;;12.30;99.90;;;;;;5021345;28;20216;-70
2022/05/04 03:30:06;;;;;;;2.28;2.08;;;12.30;99.90;;;;;;5034343;28;20200;-70
2022/05/04 03:32:33;;;;;;;2.30;2.20;;;12.30;99.90;;;;;;5021715;28;20232;-72
2022/05/04 03:35:00;;;;;;;2.00;1.90;;;12.30;99.90;;;;;;5025373;28;20220;-70
2022/05/04 03:37:28;;;;;;;2.22;2.13;;;12.40;99.90;;;;;;5021902;28;20227;-69
2022/05/04 03:39:55;;;;;;;2.25;2.15;;;12.40;99.90;;;;;;5024131;28;20206;-70
2022/05/04 03:42:22;;;;;;;2.75;2.55;;;12.40;99.90;;;;;;5016634;28;20231;-70
2022/05/04 03:44:50;;;;;;;2.80;2.60;;;12.40;99.90;;;;;;5021554;28;20602;-70
2022/05/04 03:47:17;;;;;;;2.60;2.40;;;12.30;99.90;;;;;;5020450;28;20223;-70
2022/05/04 03:49:44;;;;;;;2.35;2.15;;;12.30;99.90;;;;;;5020894;28;20724;-70
2022/05/04 03:52:11;;;;;;;2.47;2.30;;;12.30;99.90;;;;;;5020391;28;20541;-70
2022/05/04 03:54:40;;;;;;;2.45;2.22;;;12.20;99.90;;;;;;5021057;28;20216;-70
2022/05/04 03:57:07;;;;;;;2.88;2.67;;;12.20;99.90;;;;;;5023914;28;20636;-70
2022/05/04 03:59:34;;;;;;;2.55;2.20;;;12.20;99.90;;;;;;5021919;28;20216;-70
2022/05/04 04:02:01;;;;;;;3.35;2.50;;;12.20;99.90;;;;;;5017323;28;20227;-70
2022/05/04 04:04:28;;;;;;;3.17;2.33;;;12.20;99.90;;;;;;5019629;28;20616;-71
2022/05/04 04:06:58;;;;;;;2.22;2.13;;;12.10;99.90;;;;;;5019715;28;20257;-69
2022/05/04 04:09:25;;;;;;;2.55;2.45;;;12.10;99.90;;;;;;5019428;28;20227;-70
2022/05/04 04:11:53;;;;;;;2.42;2.22;;;12.10;99.90;;;;;;5023586;28;20234;-70
2022/05/04 04:14:20;;;;;;;2.03;1.85;;;12.10;99.90;;;;;;5021745;28;20227;-70
2022/05/04 04:16:47;;;;;;;2.80;2.60;;;12.10;99.90;;;;;;5020032;28;20294;-70
2022/05/04 04:19:14;;;;;;;3.00;2.80;;;12.10;99.90;;;;;;5021734;28;20258;-70
2022/05/04 04:21:53;;;;;;;2.42;2.22;;;12.10;99.90;;;;;;5020947;28;20227;-69
2022/05/04 04:24:21;;;;;;;2.80;2.60;;;12.10;99.90;;;;;;5017069;28;20700;-69
2022/05/04 04:26:48;;;;;;;2.53;2.40;;;12.10;99.90;;;;;;5021853;28;20619;-69
2022/05/04 04:29:16;;;;;;;2.80;2.60;;;12.10;99.90;;;;;;5018345;28;20245;-69
2022/05/04 04:31:43;;;;;;;3.00;2.80;;;12.20;99.90;;;;;;5017531;28;20223;-69
2022/05/04 04:34:10;;;;;;;2.40;2.30;;;12.20;99.90;;;;;;5021782;28;20285;-69
2022/05/04 04:36:38;;;;;;;2.75;2.55;;;12.20;99.90;;;;;;5020239;28;20220;-69
2022/05/04 04:39:05;;;;;;;2.95;2.75;;;12.30;99.90;;;;;;5018264;28;20293;-69
2022/05/04 04:41:32;;;;;;;2.97;2.78;;;12.40;99.90;;;;;;5026961;28;20275;-69
2022/05/04 04:43:59;;;;;;;2.50;2.30;;;12.50;99.90;;;;;;5026164;28;20197;-69
2022/05/04 04:46:28;;;;;;;2.63;2.42;;;12.60;99.90;;;;;;5036645;28;20216;-69
2022/05/04 04:48:55;;;;;;;2.83;2.63;;;12.70;99.90;;;;;;5063971;22;20227;-76
2022/05/04 04:51:22;;;;;;;2.88;2.67;;;12.90;99.90;;;;;;5039932;28;20227;-76
2022/05/04 04:53:49;;;;;;;2.70;2.50;;;12.90;99.90;;;;;;5041727;28;20227;-76
2022/05/04 04:56:16;;;;;;;3.13;2.92;;;13.00;99.90;;;;;;5045467;28;20684;-76
2022/05/04 04:58:43;;;;;;;3.50;3.20;;;13.00;99.90;;;;;;5042298;28;20219;-76
2022/05/04 05:01:10;;;;;;;3.78;3.47;;;12.90;99.90;;;;;;5020371;28;20223;-77
2022/05/04 05:03:38;;;;;;;3.38;3.08;;;12.80;99.90;;;;;;5025257;28;20658;-76
2022/05/04 05:06:05;;;;;;;3.50;3.20;;;12.90;99.90;;;;;;5021642;28;20228;-77
2022/05/04 05:08:32;;;;;;;3.35;3.08;;;13.00;99.90;;;;;;5031655;28;20234;-77
2022/05/04 05:10:59;;;;;;;3.03;2.83;;;13.10;99.90;;;;;;5021946;28;20286;-76
2022/05/04 05:13:26;;;;;;;2.92;2.72;;;13.10;99.90;;;;;;5020636;28;20212;-77
2022/05/04 05:16:08;;;;;;;2.70;2.50;;;13.10;99.90;;;;;;5021385;28;20784;-76
2022/05/04 05:18:35;;;;;;;3.33;2.92;;;13.10;99.90;;;;;;5016661;28;20282;-76
2022/05/04 05:21:04;;;;;;;2.95;2.75;;;13.20;99.90;;;;;;5017031;28;20228;-77
2022/05/04 05:23:31;;;;;;;2.90;2.70;;;13.20;99.90;;;;;;5021963;28;20697;-77
2022/05/04 05:25:58;;;;;;;3.33;2.47;;;13.20;99.90;;;;;;5020469;28;20281;-77
2022/05/04 05:28:26;;;;;;;3.30;2.42;;;13.30;99.90;;;;;;5025652;28;20196;-77
2022/05/04 05:30:53;;;;;;;2.90;2.70;;;13.40;99.90;;;;;;5016814;28;20203;-78
2022/05/04 05:33:20;;;;;;;2.88;2.67;;;13.50;99.90;;;;;;5021354;28;20690;-79
2022/05/04 05:35:47;;;;;;;2.38;2.17;;;13.50;99.90;;;;;;5020903;28;20216;-77
2022/05/04 05:38:16;;;;;;;2.88;2.67;;;13.60;99.90;;;;;;5028827;28;20285;-77
2022/05/04 05:40:43;;;;;;;2.88;2.67;;;13.70;99.90;;;;;;5019400;28;20227;-75
2022/05/04 05:43:10;;;;;;;3.13;2.92;;;13.80;99.90;;;;;;5017740;28;20200;-76
2022/05/04 05:45:37;;;;;;;3.17;2.95;;;13.90;99.90;;;;;;5008159;28;20737;-74
2022/05/04 05:48:05;;;;;;;3.22;3.00;;;14.10;99.90;;;;;;5013078;28;20728;-74
2022/05/04 05:50:34;;;;;;;3.47;3.22;;;14.10;99.90;;;;;;5024631;28;20671;-74
2022/05/04 05:53:01;;;;;;;4.28;3.22;;;14.20;99.90;;;;;;5013350;28;20729;-74
2022/05/04 05:55:30;;;;;;;3.78;3.42;;;14.50;99.90;;;;;;5023629;28;20232;-75
2022/05/04 05:57:58;;;;;;;2.70;2.50;;;14.60;99.90;;;;;;5013777;28;20244;-77
2022/05/04 06:00:26;;;;;;;2.85;2.63;;;14.70;99.90;;;;;;5021177;28;20215;-76
2022/05/04 06:02:53;;;;;;;3.20;2.90;;;14.70;99.90;;;;;;5022752;28;20642;-74
2022/05/04 06:05:20;;;;;;;4.63;3.10;;;14.60;99.90;;;;;;5021245;28;20200;-74
2022/05/04 06:07:48;;;;;;;3.08;2.88;;;14.40;99.90;;;;;;5017675;28;20219;-77
2022/05/04 06:10:16;;;;;;;3.13;2.92;;;14.20;99.90;;;;;;5024198;28;20227;-74
2022/05/04 06:12:44;;;;;;;2.67;2.50;;;14.10;99.90;;;;;;5019990;28;20316;-74
2022/05/04 06:15:12;;;;;;;3.05;2.75;;;14.10;99.90;;;;;;5018241;28;20223;-74
2022/05/04 06:17:39;;;;;;;2.38;2.28;;;14.10;99.90;;;;;;5019831;28;20223;-74
2022/05/04 06:20:08;;;;;;;2.65;2.45;;;14.10;99.90;;;;;;5019190;28;20426;-75
2022/05/04 06:22:35;;;;;;;2.95;2.70;;;14.10;99.90;;;;;;5017628;28;20215;-77
2022/05/04 06:25:02;;;;;;;2.90;2.70;;;14.10;99.90;;;;;;5023769;28;20674;-73
2022/05/04 06:27:30;;;;;;;2.75;2.55;;;14.20;99.90;;;;;;5019125;28;20227;-74
2022/05/04 06:35:28;;;;;;;3.08;2.88;;;14.30;99.90;;;;;;5019174;28;20306;-74
2022/05/04 06:37:56;;;;;;;2.92;2.70;;;14.30;99.90;;;;;;5015647;28;20390;-76
2022/05/04 06:40:23;;;;;;;2.97;2.78;;;14.40;99.90;;;;;;5020053;28;20243;-76
2022/05/04 06:42:50;;;;;;;3.42;3.13;;;14.40;99.90;;;;;;5015104;28;20307;-75
2022/05/04 06:45:18;;;;;;;3.47;3.08;;;14.60;99.90;;;;;;5026179;28;20196;-77
2022/05/04 06:47:45;;;;;;;3.50;3.28;;;14.60;99.90;;;;;;5024315;28;20736;-75
2022/05/04 06:50:13;;;;;;;3.30;3.00;;;14.60;99.90;;;;;;5017170;28;20239;-74
2022/05/04 06:52:40;;;;;;;3.67;3.38;;;14.60;99.90;;;;;;5017850;28;20215;-74
2022/05/04 06:55:09;;;;;;;3.35;3.05;;;14.60;99.90;;;;;;5018329;28;20211;-74
2022/05/04 06:57:36;;;;;;;3.85;3.38;;;14.60;99.90;;;;;;5015540;28;20231;-76
2022/05/04 07:00:05;;;;;;;3.50;3.20;;;14.60;99.90;;;;;;5020917;28;20319;-75
2022/05/04 07:02:35;;;;;;;3.80;3.50;;;14.60;99.90;;;;;;5016308;28;20219;-75
2022/05/04 07:05:02;;;;;;;3.67;3.38;;;14.70;99.90;;;;;;5012248;28;20249;-73
2022/05/04 07:07:29;;;;;;;5.88;3.83;;;14.70;99.90;;;;;;5015881;28;20351;-75
2022/05/04 07:09:58;;;;;;;3.70;3.22;;;14.80;99.90;;;;;;5014607;28;20313;-75
2022/05/04 07:12:25;;;;;;;4.20;3.72;;;14.90;99.90;;;;;;5021019;28;20600;-75
2022/05/04 07:14:55;;;;;;;4.78;3.30;;;15.00;99.90;;;;;;5014694;28;20224;-74
2022/05/04 07:17:23;;;;;;;3.58;3.28;;;15.00;99.90;;;;;;5014473;28;20232;-73
2022/05/04 07:19:51;;;;;;;3.70;3.40;;;15.10;99.90;;;;;;5013562;28;20213;-74
2022/05/04 07:22:18;;;;;;;3.85;3.25;;;15.10;99.90;;;;;;5023102;28;20722;-75
2022/05/04 07:24:46;;;;;;;4.68;3.45;;;15.20;99.90;;;;;;5025710;28;20188;-74
2022/05/04 07:27:13;;;;;;;4.35;3.95;;;15.30;99.90;;;;;;5015184;28;20220;-73
2022/05/04 07:29:40;;;;;;;4.05;3.75;;;15.40;99.90;;;;;;5013020;28;20522;-75
2022/05/04 07:32:08;;;;;;;3.58;3.25;;;15.80;99.90;;;;;;5011919;28;20270;-74
2022/05/04 07:34:36;;;;;;;3.92;3.63;;;16.40;99.90;;;;;;5014816;28;20217;-74
2022/05/04 07:37:05;;;;;;;4.20;3.72;;;17.00;99.90;;;;;;5020157;28;20227;-74
2022/05/04 07:42:28;;;;;;;3.40;3.10;;;17.80;99.90;;;;;;5011632;28;20246;-75
2022/05/04 07:45:00;;;;;;;4.75;4.05;;;17.90;99.90;;;;;;5020195;28;20226;-75
2022/05/04 07:47:28;;;;;;;3.50;3.20;;;17.80;99.90;;;;;;5016962;28;20234;-75
2022/05/04 07:49:55;;;;;;;3.80;3.50;;;17.60;99.90;;;;;;5021851;28;20228;-75
2022/05/04 07:52:24;;;;;;;3.45;3.25;;;17.40;99.90;;;;;;5013148;28;20278;-75
2022/05/04 07:54:51;;;;;;;3.53;3.30;;;17.30;99.90;;;;;;5009427;28;22007;-75
2022/05/04 07:57:19;;;;;;;3.30;3.00;;;17.30;99.90;;;;;;5015465;28;20228;-77
2022/05/04 08:04:16;;;;;;;3.67;3.30;;;17.30;99.90;;;;;;5017008;28;20285;-75
2022/05/04 08:05:18;;;;;;;4.40;3.13;;;17.20;99.90;;;;;;4980803;28;20393;-73
2022/05/04 08:07:46;;;;;;;4.93;3.30;;;17.30;99.90;;;;;;5021192;28;20228;-75
2022/05/04 08:10:13;;;;;;;4.47;4.10;;;17.40;99.90;;;;;;5012397;28;20224;-74
2022/05/04 08:12:41;;;;;;;4.57;3.03;;;17.50;99.90;;;;;;5015883;28;20254;-74
2022/05/04 08:15:09;;;;;;;3.20;2.88;;;17.70;99.90;;;;;;5008431;28;20854;-74
2022/05/04 08:17:36;;;;;;;4.70;3.40;;;18.10;99.90;;;;;;5015260;28;21554;-73
2022/05/04 08:20:03;;;;;;;4.13;3.72;;;18.60;99.90;;;;;;5013264;28;20289;-75
2022/05/04 08:22:30;;;;;;;3.65;3.33;;;19.10;99.90;;;;;;5016986;28;20377;-77
2022/05/04 08:24:59;;;;;;;3.80;3.50;;;19.20;99.90;;;;;;5008266;28;20200;-76
2022/05/04 08:27:26;;;;;;;3.38;3.10;;;19.30;99.90;;;;;;5012649;28;20231;-77
2022/05/04 08:29:53;;;;;;;3.40;3.10;;;19.20;99.90;;;;;;5012130;28;20865;-77
2022/05/04 08:32:20;;;;;;;3.63;3.20;;;19.30;99.90;;;;;;5016591;28;20230;-76
2022/05/04 08:34:47;;;;;;;3.63;3.30;;;19.30;99.90;;;;;;5014622;28;20200;-75
2022/05/04 08:37:14;;;;;;;3.47;3.17;;;19.60;99.90;;;;;;5013659;28;20244;-77
2022/05/04 08:39:42;;;;;;;3.30;3.00;;;19.80;99.90;;;;;;5017437;28;20775;-79
2022/05/04 08:42:13;;;;;;;3.47;3.17;;;19.60;99.90;;;;;;5024858;28;20198;-78
2022/05/04 08:44:42;;;;;;;3.30;3.00;;;19.90;99.90;;;;;;5021762;28;20199;-77
2022/05/04 08:47:13;;;;;;;3.83;3.17;;;20.10;99.90;;;;;;5014799;28;20328;-77
2022/05/04 08:49:42;;;;;;;5.40;2.90;;;20.20;99.90;;;;;;5015440;28;20234;-78
2022/05/04 08:52:10;;;;;;;4.05;3.75;;;20.20;99.90;;;;;;5018678;28;20223;-76
2022/05/04 08:54:37;;;;;;;3.67;3.38;;;19.90;99.90;;;;;;5021819;28;20187;-77
2022/05/04 08:57:05;;;;;;;2.70;2.50;;;19.80;99.90;;;;;;5012767;28;20754;-77
2022/05/04 08:59:33;;;;;;;3.30;3.00;;;19.70;99.90;;;;;;5025599;28;20220;-76
2022/05/04 09:02:00;;;;;;;3.00;2.80;;;19.40;99.90;;;;;;5013713;28;20263;-77
2022/05/04 09:04:27;;;;;;;2.40;2.20;;;19.10;99.90;;;;;;5018051;28;20415;-78
2022/05/04 09:06:56;;;;;;;2.88;2.33;;;19.10;99.90;;;;;;4997648;28;20729;-77
2022/05/04 09:09:23;;;;;;;2.85;2.65;;;19.20;99.90;;;;;;5019993;28;20266;-78
2022/05/04 09:11:50;;;;;;;3.00;2.78;;;19.30;99.90;;;;;;5015560;28;20231;-78
2022/05/04 09:14:25;;;;;;;2.97;2.50;;;19.30;99.90;;;;;;5015316;28;20240;-77
2022/05/04 09:16:54;;;;;;;3.17;2.88;;;19.30;99.90;;;;;;5015818;28;20711;-76
2022/05/04 09:19:21;;;;;;;2.60;2.40;;;19.30;99.90;;;;;;5009461;28;20292;-77
2022/05/04 09:21:48;;;;;;;2.80;2.60;;;19.30;99.90;;;;;;5016711;28;20425;-77
2022/05/04 09:24:17;;;;;;;3.38;3.08;;;19.20;99.90;;;;;;5018451;28;20575;-77
2022/05/04 09:26:45;;;;;;;3.90;2.80;;;19.10;99.90;;;;;;5017305;28;20191;-78
2022/05/04 09:29:14;;;;;;;3.10;2.80;;;19.20;99.90;;;;;;5016688;28;20230;-76
2022/05/04 09:31:42;;;;;;;3.35;3.00;;;19.10;99.90;;;;;;5011282;28;20203;-77
2022/05/04 09:34:11;;;;;;;3.08;2.80;;;19.20;99.90;;;;;;5013320;28;20200;-75
2022/05/04 09:44:53;;;;;;;2.92;2.72;;;19.40;99.90;;;;;;5027672;28;20216;-77
2022/05/04 09:45:08;;;;;;;3.83;2.78;;;19.50;99.90;;;;;;5013892;28;20202;-76
2022/05/04 09:47:38;;;;;;;2.80;2.60;;;19.60;99.90;;;;;;5009637;28;20219;-75
2022/05/04 09:50:09;;;;;;;3.50;3.05;;;19.50;99.90;;;;;;5015868;28;20282;-76
2022/05/04 09:52:44;;;;;;;3.13;2.92;;;19.30;99.90;;;;;;5012859;28;20465;-78
2022/05/04 09:55:19;;;;;;;2.97;2.67;;;19.10;99.90;;;;;;5011926;28;20202;-77
2022/05/04 09:57:47;;;;;;;3.65;3.15;;;19.10;99.90;;;;;;5010703;28;20250;-78
2022/05/04 10:00:17;;;;;;;2.60;2.40;;;18.90;99.90;;;;;;5017202;28;20228;-77
2022/05/04 10:02:44;;;;;;;4.03;3.22;;;19.10;99.90;;;;;;5016756;28;20477;-78
2022/05/04 10:05:12;;;;;;;2.78;2.58;;;19.30;99.90;;;;;;5012618;28;20196;-78
2022/05/04 10:07:40;;;;;;;2.40;2.20;;;19.50;99.90;;;;;;5011685;28;20721;-78
2022/05/04 10:10:09;;;;;;;2.55;2.38;;;19.80;99.90;;;;;;5014161;28;20228;-78
2022/05/04 10:12:40;;;;;;;2.90;2.65;;;20.20;99.90;;;;;;5017927;28;20219;-77
2022/05/04 10:15:10;;;;;;;2.83;2.53;;;20.50;99.90;;;;;;5017187;28;20700;-77
2022/05/04 10:17:40;;;;;;;3.65;2.90;;;20.80;99.90;;;;;;5019236;28;20549;-77
2022/05/04 10:20:12;;;;;;;3.72;3.35;;;20.90;99.90;;;;;;5023166;28;20262;-78
2022/05/04 10:22:43;;;;;;;3.97;2.80;;;21.20;99.90;;;;;;5017249;28;20917;-75
2022/05/04 10:25:13;;;;;;;3.70;2.70;;;21.40;99.90;;;;;;5009386;28;20200;-75
2022/05/04 10:27:41;;;;;;;3.15;2.80;;;21.60;99.90;;;;;;5019472;28;20227;-77
2022/05/04 10:32:59;;;;;;;3.17;2.88;;;21.90;99.90;;;;;;5013007;28;20219;-78
2022/05/04 10:35:35;;;;;;;3.13;2.83;;;21.80;99.90;;;;;;5019940;28;20200;-76
2022/05/04 10:38:13;;;;;;;6.57;3.47;;;21.60;99.90;;;;;;5014708;28;20636;-78
2022/05/04 10:40:44;;;;;;;3.50;3.10;;;21.50;99.90;;;;;;5015701;28;20214;-76
2022/05/04 10:43:13;;;;;;;2.97;2.78;;;21.20;99.90;;;;;;5012351;28;20770;-75
2022/05/04 10:45:43;;;;;;;4.10;2.80;;;21.00;99.90;;;;;;5007191;28;20303;-77
2022/05/04 10:48:24;;;;;;;3.50;2.85;;;21.00;99.90;;;;;;5006910;28;20548;-78
2022/05/04 10:50:53;;;;;;;6.35;2.90;;;20.90;99.90;;;;;;5041262;22;20594;-75
2022/05/04 10:53:35;;;;;;;3.72;3.40;;;20.90;99.90;;;;;;5021302;28;20394;-74
2022/05/04 10:56:05;;;;;;;5.35;3.35;;;20.90;99.90;;;;;;5020059;28;20242;-77
2022/05/04 10:58:42;;;;;;;3.63;3.30;;;20.80;99.90;;;;;;5031988;28;20242;-74
2022/05/04 11:01:15;;;;;;;3.13;2.90;;;20.90;99.90;;;;;;5014909;28;20638;-75
2022/05/04 11:04:05;;;;;;;3.50;3.13;;;21.00;99.90;;;;;;5015843;28;20285;-76
2022/05/04 11:06:33;;;;;;;3.90;3.58;;;21.00;99.90;;;;;;5015668;28;20189;-74
2022/05/04 11:09:07;;;;;;;3.63;3.33;;;20.90;99.90;;;;;;5009950;28;20219;-75
2022/05/04 11:11:35;;;;;;;3.70;3.40;;;21.30;99.90;;;;;;5013154;28;20258;-75
2022/05/04 11:14:03;;;;;;;3.20;2.90;;;21.70;99.90;;;;;;5015488;28;20281;-77
2022/05/04 11:16:30;;;;;;;3.38;3.03;;;22.20;99.90;;;;;;5014958;28;20215;-75
2022/05/04 11:18:59;;;;;;;5.20;3.47;;;22.70;99.90;;;;;;5009205;28;20220;-75
2022/05/04 11:21:27;;;;;;;5.00;3.22;;;22.80;99.90;;;;;;5012952;28;20286;-75
2022/05/04 11:23:56;;;;;;;4.13;3.20;;;22.90;99.90;;;;;;5015544;28;20231;-77
2022/05/04 11:26:26;;;;;;;3.38;3.08;;;22.70;99.90;;;;;;5013246;28;20279;-74
2022/05/04 11:28:55;;;;;;;2.90;2.40;;;22.30;99.90;;;;;;5016744;28;20271;-75
2022/05/04 11:31:22;;;;;;;2.78;2.53;;;21.90;99.90;;;;;;5011409;28;20749;-75
2022/05/04 11:33:51;;;;;;;2.70;2.35;;;21.90;99.90;;;;;;5011589;28;20224;-76
2022/05/04 11:36:20;;;;;;;4.43;2.72;;;21.90;99.90;;;;;;5015823;28;20242;-75
2022/05/04 11:38:48;;;;;;;2.70;2.45;;;21.80;99.90;;;;;;5019222;28;20398;-75
2022/05/04 11:41:16;;;;;;;2.75;2.50;;;22.10;99.90;;;;;;5011784;28;20227;-75
2022/05/04 11:43:44;;;;;;;2.20;1.98;;;22.00;99.90;;;;;;5013919;28;20235;-75
2022/05/04 11:46:13;;;;;;;2.30;2.00;;;22.00;99.90;;;;;;5013010;28;20302;-76
2022/05/04 11:48:42;;;;;;;5.65;2.30;;;22.00;99.90;;;;;;5013267;28;20228;-77
2022/05/04 11:51:10;;;;;;;2.20;2.00;;;22.00;99.90;;;;;;5021809;28;20310;-74
2022/05/04 11:53:38;;;;;;;2.10;1.90;;;22.10;99.90;;;;;;5011558;28;20242;-74
2022/05/04 11:56:06;;;;;;;1.77;1.65;;;22.20;99.90;;;;;;5012552;28;20228;-74
2022/05/04 11:58:36;;;;;;;4.30;1.92;;;22.20;99.90;;;;;;5012649;28;20247;-74
2022/05/04 12:01:06;;;;;;;3.30;2.00;;;21.90;99.90;;;;;;5013506;28;20694;-75
2022/05/04 12:03:36;;;;;;;2.20;2.00;;;21.60;99.90;;;;;;5013244;28;20789;-73
2022/05/04 12:06:05;;;;;;;3.33;2.00;;;21.20;99.90;;;;;;5018090;28;20206;-75
2022/05/04 12:08:33;;;;;;;4.18;2.30;;;21.00;99.90;;;;;;5014474;28;20264;-76
2022/05/04 12:11:00;;;;;;;2.50;2.30;;;20.80;99.90;;;;;;5013552;28;20301;-76
2022/05/04 12:13:28;;;;;;;2.50;1.75;;;20.80;99.90;;;;;;5009264;28;20804;-74
2022/05/04 12:15:58;;;;;;;2.55;2.20;;;20.80;99.90;;;;;;5013554;28;20203;-74
2022/05/04 12:18:30;;;;;;;2.55;2.35;;;20.70;99.90;;;;;;5015896;28;20216;-77
2022/05/04 12:20:57;;;;;;;2.67;2.47;;;20.50;99.90;;;;;;5021343;28;20235;-75
2022/05/04 12:23:25;;;;;;;3.67;2.20;;;20.40;99.90;;;;;;5018883;28;20803;-74
2022/05/04 12:25:54;;;;;;;2.40;2.25;;;20.40;99.90;;;;;;5012017;28;20204;-76
2022/05/04 12:28:21;;;;;;;2.75;2.33;;;20.40;99.90;;;;;;5029441;28;20618;-75
2022/05/04 12:33:38;;;;;;;2.40;2.20;;;20.40;99.90;;;;;;5005936;28;20233;-74
2022/05/04 12:36:07;;;;;;;2.15;2.00;;;20.40;99.90;;;;;;5017543;28;20275;-75
2022/05/04 12:38:35;;;;;;;3.63;2.40;;;20.50;99.90;;;;;;5012788;28;20295;-76
2022/05/04 12:41:03;;;;;;;2.53;2.28;;;20.60;99.90;;;;;;5014927;28;20215;-75
2022/05/04 12:43:34;;;;;;;4.07;2.30;;;20.40;99.90;;;;;;5015442;28;20301;-75
2022/05/04 12:46:02;;;;;;;2.10;2.00;;;20.40;99.90;;;;;;5022685;28;20199;-75
2022/05/04 12:48:30;;;;;;;2.85;2.25;;;20.40;99.90;;;;;;5015335;28;20467;-77
2022/05/04 12:50:59;;;;;;;2.33;2.13;;;20.60;99.90;;;;;;5012782;28;20228;-76
2022/05/04 12:53:27;;;;;;;2.30;2.10;;;20.70;99.90;;;;;;5015092;28;20219;-75
2022/05/04 12:58:40;;;;;;;2.60;1.90;;;20.60;99.90;;;;;;5011819;28;20264;-75
2022/05/04 13:01:08;;;;;;;2.53;2.33;;;20.80;99.90;;;;;;5009492;28;20220;-75
2022/05/04 13:03:35;;;;;;;4.15;2.08;;;20.80;99.90;;;;;;5013377;28;20232;-75
2022/05/04 13:06:04;;;;;;;2.97;2.25;;;20.70;99.90;;;;;;5013600;28;20192;-76
2022/05/04 13:08:31;;;;;;;1.77;1.67;;;20.60;99.90;;;;;;5020771;28;20274;-74
2022/05/04 13:11:00;;;;;;;2.63;2.42;;;20.60;99.90;;;;;;5013630;28;20216;-75
2022/05/04 13:13:27;;;;;;;3.88;2.53;;;20.60;99.90;;;;;;5012032;28;20227;-76
2022/05/04 13:15:54;;;;;;;2.38;2.17;;;20.70;99.90;;;;;;5018889;28;20192;-76
2022/05/04 13:18:22;;;;;;;3.80;2.38;;;20.70;99.90;;;;;;5022172;28;20251;-76
2022/05/04 13:20:51;;;;;;;2.83;2.40;;;20.60;99.90;;;;;;5018546;28;20637;-75
2022/05/04 13:23:20;;;;;;;2.90;2.13;;;20.50;99.90;;;;;;5023243;28;20219;-76